createdAt,value
2019-05-16T00:02:22.058Z,8.83
2019-05-16T00:04:53.940Z,8.77
2019-05-16T00:07:28.244Z,8.76
2019-05-16T00:09:59.460Z,8.82
2019-05-16T00:12:31.523Z,8.82
2019-05-16T00:15:03.555Z,8.89
2019-05-16T00:17:38.286Z,8.94
2019-05-16T00:20:10.225Z,8.97
2019-05-16T00:22:41.974Z,8.95
2019-05-16T00:25:13.962Z,9.01
2019-05-16T00:27:47.739Z,9.04
2019-05-16T00:30:19.182Z,9.02
2019-05-16T00:32:50.954Z,8.95
2019-05-16T00:35:22.947Z,8.97
2019-05-16T00:37:55.585Z,8.90
2019-05-16T00:40:28.396Z,8.89
2019-05-16T00:43:00.718Z,8.96
2019-05-16T00:45:32.750Z,8.80
2019-05-16T00:48:04.395Z,8.86
2019-05-16T00:50:36.292Z,8.86
2019-05-16T00:53:09.106Z,8.90
2019-05-16T00:55:41.795Z,8.94
2019-05-16T00:58:15.461Z,8.90
2019-05-16T01:00:49.857Z,8.89
2019-05-16T01:03:22.481Z,8.95
2019-05-16T01:05:54.928Z,8.96
2019-05-16T01:08:28.156Z,8.86
2019-05-16T01:11:00.495Z,8.89
2019-05-16T01:13:33.998Z,8.83
2019-05-16T01:16:08.397Z,8.82
2019-05-16T01:18:40.304Z,8.79
2019-05-16T01:21:13.038Z,8.78
2019-05-16T01:23:44.766Z,8.79
2019-05-16T01:26:18.644Z,8.78
2019-05-16T01:28:52.048Z,8.79
2019-05-16T01:31:23.897Z,8.77
2019-05-16T01:33:55.510Z,8.78
2019-05-16T01:36:36.650Z,8.82
2019-05-16T01:39:00.869Z,8.84
2019-05-16T01:41:32.848Z,8.81
2019-05-16T01:44:04.955Z,8.88
2019-05-16T01:46:39.129Z,8.86
2019-05-16T01:49:11.974Z,8.78
2019-05-16T01:51:43.639Z,8.69
2019-05-16T01:54:17.876Z,8.60
2019-05-16T01:56:48.908Z,8.55
2019-05-16T01:59:20.725Z,8.55
2019-05-16T02:01:53.649Z,8.54
2019-05-16T02:04:25.862Z,8.53
2019-05-16T02:06:58.451Z,8.59
2019-05-16T02:09:30.394Z,8.59
2019-05-16T02:12:02.296Z,8.66
2019-05-16T02:14:35.826Z,8.69
2019-05-16T02:17:08.677Z,8.75
2019-05-16T02:19:41.475Z,8.81
2019-05-16T02:22:14.933Z,8.85
2019-05-16T02:24:47.968Z,8.90
2019-05-16T02:27:20.148Z,8.92
2019-05-16T02:29:51.659Z,8.94
2019-05-16T02:32:24.591Z,8.97
2019-05-16T02:35:01.315Z,9.00
2019-05-16T02:37:34.818Z,9.03
2019-05-16T02:40:07.519Z,9.03
2019-05-16T02:42:42.056Z,9.08
2019-05-16T02:45:14.951Z,9.10
2019-05-16T02:47:46.520Z,9.11
2019-05-16T02:50:21.917Z,9.11
2019-05-16T02:52:52.198Z,9.11
2019-05-16T02:55:23.754Z,9.15
2019-05-16T02:57:55.472Z,9.13
2019-05-16T03:00:36.414Z,9.15
2019-05-16T03:03:08.050Z,9.10
2019-05-16T03:05:41.878Z,9.14
2019-05-16T03:08:14.237Z,9.14
2019-05-16T03:10:46.758Z,9.18
2019-05-16T03:13:21.993Z,9.21
2019-05-16T03:15:52.721Z,9.23
2019-05-16T03:18:26.270Z,9.25
2019-05-16T03:21:01.457Z,9.26
2019-05-16T03:23:34.519Z,9.28
2019-05-16T03:26:06.291Z,9.27
2019-05-16T03:28:41.082Z,9.29
2019-05-16T03:31:15.052Z,9.31
2019-05-16T03:33:52.452Z,9.29
2019-05-16T03:36:24.297Z,9.32
2019-05-16T03:38:52.273Z,9.30
2019-05-16T03:41:25.524Z,9.28
2019-05-16T03:43:57.541Z,9.32
2019-05-16T03:46:30.954Z,9.32
2019-05-16T03:49:02.909Z,9.32
2019-05-16T03:51:34.407Z,9.34
2019-05-16T03:54:06.351Z,9.34
2019-05-16T03:56:40.581Z,9.28
2019-05-16T03:59:12.966Z,9.34
2019-05-16T04:01:44.653Z,9.35
2019-05-16T04:04:16.565Z,9.36
2019-05-16T04:06:50.714Z,9.37
2019-05-16T04:09:21.926Z,9.35
2019-05-16T04:11:53.673Z,9.36
2019-05-16T04:14:25.962Z,9.33
2019-05-16T04:17:01.594Z,9.31
2019-05-16T04:19:33.811Z,9.41
2019-05-16T04:22:10.562Z,9.31
2019-05-16T04:24:42.325Z,9.26
2019-05-16T04:27:14.051Z,9.26
2019-05-16T04:29:46.536Z,9.23
2019-05-16T04:32:20.880Z,9.18
2019-05-16T04:34:51.755Z,9.15
2019-05-16T04:37:26.186Z,9.16
2019-05-16T04:39:57.254Z,9.14
2019-05-16T04:42:31.125Z,9.23
2019-05-16T04:45:02.188Z,9.24
2019-05-16T04:47:33.970Z,9.22
2019-05-16T04:50:06.134Z,9.22
2019-05-16T04:52:41.931Z,9.05
2019-05-16T04:55:12.434Z,9.06
2019-05-16T04:57:44.352Z,9.12
2019-05-16T05:00:21.086Z,9.08
2019-05-16T05:02:52.067Z,9.11
2019-05-16T05:05:23.765Z,9.20
2019-05-16T05:07:55.262Z,9.12
2019-05-16T05:10:27.010Z,9.13
2019-05-16T05:13:01.397Z,9.31
2019-05-16T05:15:33.704Z,9.45
2019-05-16T05:18:06.522Z,9.58
2019-05-16T05:20:41.056Z,9.62
2019-05-16T05:23:12.219Z,9.31
2019-05-16T05:25:44.170Z,9.50
2019-05-16T05:28:16.878Z,9.43
2019-05-16T05:30:50.295Z,9.51
2019-05-16T05:33:22.264Z,9.52
2019-05-16T05:35:54.088Z,9.65
2019-05-16T05:38:26.094Z,9.69
2019-05-16T05:41:00.113Z,9.70
2019-05-16T05:43:31.446Z,9.69
2019-05-16T05:46:03.745Z,9.75
2019-05-16T05:48:36.124Z,9.82
2019-05-16T05:51:07.719Z,9.82
2019-05-16T05:53:40.215Z,9.91
2019-05-16T05:56:13.437Z,9.90
2019-05-16T05:58:45.189Z,9.98
2019-05-16T06:01:16.836Z,10.01
2019-05-16T06:03:50.478Z,9.97
2019-05-16T06:06:21.770Z,10.08
2019-05-16T06:08:53.762Z,10.15
2019-05-16T06:11:25.414Z,10.29
2019-05-16T06:13:57.045Z,10.33
2019-05-16T06:16:30.799Z,10.42
2019-05-16T06:19:02.287Z,10.43
2019-05-16T06:21:34.202Z,10.55
2019-05-16T06:24:05.914Z,10.67
2019-05-16T06:26:39.619Z,10.75
2019-05-16T06:29:11.078Z,10.89
2019-05-16T06:31:42.861Z,10.99
2019-05-16T06:34:15.420Z,10.98
2019-05-16T06:36:48.059Z,10.71
2019-05-16T06:39:20.134Z,10.75
2019-05-16T06:41:52.217Z,10.69
2019-05-16T06:44:23.803Z,10.80
2019-05-16T06:47:09.567Z,10.69
2019-05-16T06:49:30.363Z,10.93
2019-05-16T06:52:02.118Z,11.04
2019-05-16T06:54:34.023Z,11.11
2019-05-16T06:57:06.058Z,11.15
2019-05-16T06:59:37.566Z,11.24
2019-05-16T07:02:11.037Z,11.34
2019-05-16T07:04:42.962Z,11.38
2019-05-16T07:07:14.628Z,11.47
2019-05-16T07:09:58.116Z,11.40
2019-05-16T07:12:20.309Z,11.32
2019-05-16T07:14:52.171Z,11.42
2019-05-16T07:17:26.059Z,11.52
2019-05-16T07:20:00.542Z,11.58
2019-05-16T07:22:31.369Z,11.67
2019-05-16T07:25:03.028Z,11.73
2019-05-16T07:27:34.980Z,11.78
2019-05-16T07:30:07.054Z,11.83
2019-05-16T07:32:40.483Z,11.92
2019-05-16T07:35:12.679Z,11.84
2019-05-16T07:37:44.665Z,11.83
2019-05-16T07:40:23.627Z,11.57
2019-05-16T07:42:51.003Z,11.77
2019-05-16T07:45:23.051Z,12.11
2019-05-16T07:47:54.727Z,12.26
2019-05-16T07:50:26.425Z,12.52
2019-05-16T07:52:59.997Z,12.67
2019-05-16T07:55:31.701Z,12.78
2019-05-16T07:58:03.700Z,13.01
2019-05-16T08:00:49.672Z,13.12
2019-05-16T08:03:10.457Z,12.89
2019-05-16T08:05:42.151Z,12.73
2019-05-16T08:08:14.518Z,12.48
2019-05-16T08:10:46.949Z,12.43
2019-05-16T08:15:52.655Z,12.46
2019-05-16T08:18:24.441Z,12.58
2019-05-16T08:20:56.067Z,12.51
2019-05-16T08:23:29.764Z,12.66
2019-05-16T08:26:02.219Z,12.70
2019-05-16T08:28:33.909Z,12.60
2019-05-16T08:31:05.991Z,12.73
2019-05-16T08:33:41.290Z,12.88
2019-05-16T08:36:12.152Z,13.24
2019-05-16T08:38:44.882Z,13.09
2019-05-16T08:41:22.167Z,13.13
2019-05-16T08:43:53.749Z,13.33
2019-05-16T08:46:25.514Z,13.53
2019-05-16T08:49:00.836Z,13.45
2019-05-16T08:50:05.094Z,12.45
2019-05-16T08:51:33.333Z,13.64
2019-05-16T08:54:04.422Z,13.91
2019-05-16T08:56:35.952Z,14.02
2019-05-16T08:59:07.715Z,13.66
2019-05-16T09:01:51.421Z,14.00
2019-05-16T09:04:14.322Z,13.93
2019-05-16T09:06:46.200Z,13.95
2019-05-16T09:09:39.873Z,14.17
2019-05-16T09:11:52.926Z,14.26
2019-05-16T09:14:27.456Z,14.34
2019-05-16T09:16:58.753Z,14.05
2019-05-16T09:19:30.790Z,14.34
2019-05-16T09:22:03.879Z,14.26
2019-05-16T09:24:37.747Z,14.57
2019-05-16T09:27:12.147Z,14.87
2019-05-16T09:29:41.997Z,14.94
2019-05-16T09:32:20.237Z,15.26
2019-05-16T09:34:47.994Z,15.25
2019-05-16T09:37:19.728Z,15.36
2019-05-16T09:39:51.363Z,15.38
2019-05-16T09:42:24.025Z,15.31
2019-05-16T09:44:57.752Z,15.46
2019-05-16T09:47:29.273Z,15.34
2019-05-16T09:50:01.346Z,15.61
2019-05-16T09:52:36.412Z,15.63
2019-05-16T09:55:08.857Z,15.94
2019-05-16T09:57:40.598Z,16.06
2019-05-16T10:00:17.975Z,16.21
2019-05-16T10:02:50.171Z,16.42
2019-05-16T10:05:26.405Z,16.38
2019-05-16T10:07:57.523Z,16.38
2019-05-16T10:10:29.382Z,16.37
2019-05-16T10:13:01.189Z,16.19
2019-05-16T10:15:33.098Z,16.40
2019-05-16T10:18:07.556Z,16.53
2019-05-16T10:20:39.323Z,16.70
2019-05-16T10:23:14.990Z,16.85
2019-05-16T10:25:44.391Z,16.88
2019-05-16T10:28:17.288Z,16.99
2019-05-16T10:30:50.171Z,16.97
2019-05-16T10:33:22.263Z,17.08
2019-05-16T10:35:53.914Z,17.06
2019-05-16T10:38:28.573Z,17.17
2019-05-16T10:40:59.483Z,17.39
2019-05-16T10:43:32.103Z,17.39
2019-05-16T10:46:06.496Z,17.23
2019-05-16T10:48:38.463Z,17.24
2019-05-16T10:51:10.168Z,17.40
2019-05-16T10:54:02.522Z,17.42
2019-05-16T10:56:15.359Z,17.28
2019-05-16T10:59:12.143Z,17.31
2019-05-16T11:01:27.387Z,17.39
2019-05-16T11:03:56.652Z,17.31
2019-05-16T11:06:29.349Z,17.65
2019-05-16T11:09:01.566Z,17.61
2019-05-16T11:11:36.788Z,17.32
2019-05-16T11:14:09.353Z,17.55
2019-05-16T11:16:41.271Z,17.64
2019-05-16T11:19:18.289Z,17.41
2019-05-16T11:21:47.509Z,17.42
2019-05-16T11:24:19.409Z,17.42
2019-05-16T11:26:52.585Z,17.16
2019-05-16T11:29:24.350Z,17.28
2019-05-16T11:31:57.510Z,17.23
2019-05-16T11:34:29.723Z,17.25
2019-05-16T11:37:01.331Z,17.33
2019-05-16T11:39:33.163Z,17.20
2019-05-16T11:42:07.753Z,17.19
2019-05-16T11:44:39.319Z,17.19
2019-05-16T11:47:11.798Z,17.45
2019-05-16T11:49:43.516Z,17.87
2019-05-16T11:52:17.999Z,18.10
2019-05-16T11:54:49.910Z,18.11
2019-05-16T11:57:21.514Z,18.92
2019-05-16T11:59:56.695Z,19.58
2019-05-16T12:02:28.070Z,20.42
2019-05-16T12:05:00.017Z,20.83
2019-05-16T12:07:34.246Z,20.58
2019-05-16T12:10:07.617Z,20.43
2019-05-16T12:12:39.488Z,20.27
2019-05-16T12:15:12.697Z,19.94
2019-05-16T12:17:59.139Z,19.48
2019-05-16T12:20:17.740Z,19.29
2019-05-16T12:22:49.410Z,19.20
2019-05-16T12:25:21.061Z,19.14
2019-05-16T12:27:53.697Z,19.05
2019-05-16T12:30:25.250Z,18.72
2019-05-16T12:32:58.110Z,18.75
2019-05-16T12:35:30.286Z,18.87
2019-05-16T12:38:01.989Z,18.66
2019-05-16T12:40:33.903Z,18.88
2019-05-16T12:43:07.793Z,19.39
2019-05-16T12:45:40.087Z,20.02
2019-05-16T12:48:11.632Z,20.43
2019-05-16T12:50:43.370Z,20.43
2019-05-16T12:53:15.144Z,20.40
2019-05-16T12:55:47.655Z,20.54
2019-05-16T12:58:25.404Z,20.54
2019-05-16T13:00:57.347Z,20.52
2019-05-16T13:03:28.209Z,20.59
2019-05-16T13:05:59.941Z,20.55
2019-05-16T13:08:31.465Z,20.40
2019-05-16T13:11:06.822Z,20.59
2019-05-16T13:13:38.028Z,20.91
2019-05-16T13:16:11.192Z,20.74
2019-05-16T13:18:42.722Z,20.57
2019-05-16T13:21:14.526Z,20.21
2019-05-16T13:23:46.788Z,19.95
2019-05-16T13:26:18.408Z,19.85
2019-05-16T13:28:50.261Z,19.91
2019-05-16T13:31:23.302Z,20.29
2019-05-16T13:33:56.825Z,20.43
2019-05-16T13:36:29.001Z,20.61
2019-05-16T13:39:00.673Z,20.41
2019-05-16T13:41:34.449Z,20.01
2019-05-16T13:44:17.778Z,19.91
2019-05-16T13:46:39.906Z,19.83
2019-05-16T13:49:12.118Z,19.74
2019-05-16T13:51:43.977Z,19.83
2019-05-16T13:54:17.718Z,20.15
2019-05-16T13:56:51.609Z,20.34
2019-05-16T13:59:23.270Z,20.43
2019-05-16T14:01:57.290Z,21.06
2019-05-16T14:04:29.180Z,21.38
2019-05-16T14:07:00.880Z,21.28
2019-05-16T14:09:33.007Z,21.07
2019-05-16T14:12:06.616Z,20.89
2019-05-16T14:14:42.286Z,20.63
2019-05-16T14:17:14.460Z,20.57
2019-05-16T14:19:47.895Z,20.66
2019-05-16T14:22:19.112Z,20.64
2019-05-16T14:24:50.981Z,20.65
2019-05-16T14:27:23.231Z,20.65
2019-05-16T14:29:57.750Z,20.39
2019-05-16T14:32:28.514Z,20.32
2019-05-16T14:35:00.381Z,20.11
2019-05-16T14:37:31.972Z,20.13
2019-05-16T14:40:03.525Z,20.43
2019-05-16T14:42:38.850Z,20.15
2019-05-16T14:45:13.556Z,19.99
2019-05-16T14:47:47.540Z,20.18
2019-05-16T14:50:18.974Z,20.46
2019-05-16T14:52:52.439Z,20.46
2019-05-16T14:55:27.251Z,20.84
2019-05-16T14:57:57.974Z,21.21
2019-05-16T15:00:29.938Z,21.32
2019-05-16T15:03:02.638Z,21.60
2019-05-16T15:05:41.806Z,21.32
2019-05-16T15:08:08.705Z,21.33
2019-05-16T15:10:40.732Z,21.07
2019-05-16T15:13:12.337Z,20.41
2019-05-16T15:15:46.114Z,20.50
2019-05-16T15:18:18.056Z,20.36
2019-05-16T15:20:50.709Z,20.59
2019-05-16T15:23:22.611Z,20.98
2019-05-16T15:25:55.132Z,21.27
2019-05-16T15:28:30.245Z,21.26
2019-05-16T15:31:01.106Z,21.26
2019-05-16T15:33:33.928Z,21.51
2019-05-16T15:36:08.549Z,21.87
2019-05-16T15:38:39.189Z,22.24
2019-05-16T15:41:12.333Z,22.68
2019-05-16T15:43:44.090Z,22.40
2019-05-16T15:46:17.359Z,22.51
2019-05-16T15:48:50.538Z,22.92
2019-05-16T15:51:23.898Z,23.34
2019-05-16T15:53:57.189Z,22.58
2019-05-16T15:56:29.883Z,22.72
2019-05-16T15:59:02.747Z,22.82
2019-05-16T16:01:37.624Z,22.85
2019-05-16T16:04:08.075Z,22.83
2019-05-16T16:06:43.059Z,22.83
2019-05-16T16:09:13.828Z,22.47
2019-05-16T16:11:48.506Z,22.23
2019-05-16T16:14:19.605Z,22.29
2019-05-16T16:16:51.208Z,21.53
2019-05-16T16:19:22.777Z,21.29
2019-05-16T16:21:57.636Z,21.56
2019-05-16T16:24:28.774Z,21.43
2019-05-16T16:27:00.748Z,21.50
2019-05-16T16:29:33.253Z,21.76
2019-05-16T16:32:06.485Z,22.04
2019-05-16T16:34:38.203Z,21.68
2019-05-16T16:37:09.960Z,21.51
2019-05-16T16:39:41.652Z,21.45
2019-05-16T16:42:13.318Z,21.20
2019-05-16T16:44:47.201Z,21.33
2019-05-16T16:47:18.720Z,21.67
2019-05-16T16:49:50.922Z,21.50
2019-05-16T16:52:22.502Z,21.57
2019-05-16T16:54:56.862Z,21.81
2019-05-16T16:57:29.421Z,21.71
2019-05-16T17:00:01.280Z,21.53
2019-05-16T17:02:37.113Z,21.21
2019-05-16T17:05:12.223Z,20.94
2019-05-16T17:07:43.329Z,20.70
2019-05-16T17:10:15.400Z,20.64
2019-05-16T17:12:47.424Z,20.67
2019-05-16T17:15:19.641Z,20.38
2019-05-16T17:17:51.441Z,20.13
2019-05-16T17:20:26.042Z,19.94
2019-05-16T17:22:57.950Z,19.64
2019-05-16T17:25:29.668Z,19.62
2019-05-16T17:28:01.704Z,19.56
2019-05-16T17:30:33.554Z,19.48
2019-05-16T17:33:07.768Z,19.32
2019-05-16T17:35:40.713Z,19.20
2019-05-16T17:38:12.460Z,18.89
2019-05-16T17:40:46.425Z,18.96
2019-05-16T17:43:18.256Z,18.72
2019-05-16T17:45:51.080Z,18.55
2019-05-16T17:48:27.228Z,18.42
2019-05-16T17:50:57.285Z,18.15
2019-05-16T17:53:29.086Z,18.10
2019-05-16T17:56:00.896Z,18.00
2019-05-16T17:58:32.846Z,17.93
2019-05-16T18:01:06.905Z,17.94
2019-05-16T18:03:38.974Z,17.96
2019-05-16T18:06:11.490Z,17.88
2019-05-16T18:08:43.456Z,17.78
2019-05-16T18:11:17.605Z,17.73
2019-05-16T18:13:49.038Z,17.56
2019-05-16T18:16:20.973Z,17.39
2019-05-16T18:18:52.785Z,17.33
2019-05-16T18:21:24.713Z,17.29
2019-05-16T18:23:56.715Z,17.12
2019-05-16T18:26:28.196Z,17.04
2019-05-16T18:28:59.722Z,16.94
2019-05-16T18:31:32.246Z,16.87
2019-05-16T18:34:04.332Z,16.74
2019-05-16T18:36:36.285Z,16.64
2019-05-16T18:39:09.055Z,16.44
2019-05-16T18:41:40.925Z,16.48
2019-05-16T18:44:16.545Z,16.39
2019-05-16T18:46:48.180Z,16.12
2019-05-16T18:49:19.984Z,16.02
2019-05-16T18:51:51.930Z,15.84
2019-05-16T18:54:26.479Z,15.84
2019-05-16T18:56:57.814Z,15.80
2019-05-16T18:59:30.081Z,15.75
2019-05-16T19:02:01.722Z,15.72
2019-05-16T19:04:33.488Z,15.67
2019-05-16T19:07:07.850Z,15.68
2019-05-16T19:09:39.988Z,15.59
2019-05-16T19:12:13.547Z,15.57
2019-05-16T19:14:47.241Z,15.59
2019-05-16T19:17:24.497Z,15.58
2019-05-16T19:19:52.783Z,15.54
2019-05-16T19:22:26.474Z,15.48
2019-05-16T19:24:58.851Z,15.47
2019-05-16T19:27:31.108Z,15.48
2019-05-16T19:30:03.000Z,15.48
2019-05-16T19:32:39.142Z,15.39
2019-05-16T19:35:10.328Z,15.40
2019-05-16T19:37:42.041Z,15.36
2019-05-16T19:40:17.200Z,15.30
2019-05-16T19:42:49.209Z,15.27
2019-05-16T19:45:21.466Z,15.27
2019-05-16T19:47:52.979Z,15.24
2019-05-16T19:50:26.656Z,15.22
2019-05-16T19:52:58.456Z,15.23
2019-05-16T19:55:30.191Z,15.21
2019-05-16T19:58:01.845Z,15.19
2019-05-16T20:00:34.019Z,15.16
2019-05-16T20:03:07.662Z,15.12
2019-05-16T20:05:39.351Z,15.07
2019-05-16T20:08:11.146Z,15.02
2019-05-16T20:10:43.277Z,15.02
2019-05-16T20:13:16.598Z,14.97
2019-05-16T20:15:48.639Z,15.01
2019-05-16T20:18:21.791Z,14.99
2019-05-16T20:20:53.452Z,14.86
2019-05-16T20:23:27.610Z,14.62
2019-05-16T20:25:58.984Z,14.54
2019-05-16T20:28:30.714Z,14.58
2019-05-16T20:31:02.392Z,14.62
2019-05-16T20:33:34.586Z,14.62
2019-05-16T20:36:09.473Z,14.58
2019-05-16T20:38:40.453Z,14.55
2019-05-16T20:41:12.503Z,14.54
2019-05-16T20:43:44.079Z,14.45
2019-05-16T20:46:16.924Z,14.45
2019-05-16T20:48:48.996Z,14.44
2019-05-16T20:51:21.042Z,14.40
2019-05-16T20:53:53.101Z,14.36
2019-05-16T20:56:26.557Z,14.37
2019-05-16T20:58:58.081Z,14.40
2019-05-16T21:01:29.872Z,14.40
2019-05-16T21:04:01.566Z,14.38
2019-05-16T21:06:33.212Z,14.36
2019-05-16T21:09:07.050Z,14.33
2019-05-16T21:11:39.021Z,14.31
2019-05-16T21:14:10.575Z,14.28
2019-05-16T21:16:43.391Z,14.27
2019-05-16T21:19:16.308Z,14.27
2019-05-16T21:21:48.016Z,14.23
2019-05-16T21:24:22.128Z,14.18
2019-05-16T21:26:53.536Z,14.12
2019-05-16T21:29:27.663Z,14.11
2019-05-16T21:31:59.596Z,14.02
2019-05-16T21:34:31.245Z,14.00
2019-05-16T21:37:13.883Z,13.99
2019-05-16T21:39:37.020Z,13.93
2019-05-16T21:42:09.853Z,13.88
2019-05-16T21:44:41.615Z,13.69
2019-05-16T21:47:13.247Z,13.62
2019-05-16T21:49:47.204Z,13.50
2019-05-16T21:52:19.053Z,13.46
2019-05-16T21:54:51.041Z,13.54
2019-05-16T21:57:23.807Z,13.62
2019-05-16T21:59:57.127Z,13.69
2019-05-16T22:02:29.587Z,13.72
2019-05-16T22:05:01.990Z,13.76
2019-05-16T22:07:36.528Z,13.83
2019-05-16T22:10:08.692Z,13.88
2019-05-16T22:12:42.255Z,13.78
2019-05-16T22:15:16.932Z,13.68
2019-05-16T22:17:49.743Z,13.75
2019-05-16T22:20:21.640Z,13.80
2019-05-16T22:22:53.470Z,13.83
2019-05-16T22:25:27.250Z,13.81
2019-05-16T22:27:59.308Z,13.80
2019-05-16T22:30:30.995Z,13.76
2019-05-16T22:33:02.735Z,13.66
2019-05-16T22:35:34.611Z,13.55
2019-05-16T22:38:06.590Z,13.44
2019-05-16T22:40:38.209Z,13.42
2019-05-16T22:43:10.396Z,13.38
2019-05-16T22:45:42.668Z,13.39
2019-05-16T22:48:17.090Z,13.40
2019-05-16T22:50:48.135Z,13.29
2019-05-16T22:53:20.278Z,13.26
2019-05-16T22:55:51.980Z,13.31
2019-05-16T22:58:26.772Z,13.21
2019-05-16T23:00:57.964Z,13.19
2019-05-16T23:03:29.631Z,13.19
2019-05-16T23:06:01.346Z,13.21
2019-05-16T23:08:32.932Z,13.22
2019-05-16T23:11:07.092Z,13.08
2019-05-16T23:13:38.271Z,13.07
2019-05-16T23:16:10.650Z,13.13
2019-05-16T23:18:42.703Z,13.11
2019-05-16T23:21:16.864Z,13.09
2019-05-16T23:23:48.038Z,13.00
2019-05-16T23:26:20.000Z,12.92
2019-05-16T23:28:52.059Z,12.88
2019-05-16T23:31:23.832Z,12.89
2019-05-16T23:33:56.447Z,12.89
2019-05-16T23:36:28.329Z,12.84
2019-05-16T23:39:00.282Z,12.83
2019-05-16T23:41:32.237Z,12.82
2019-05-16T23:44:07.265Z,12.85
2019-05-16T23:46:38.176Z,12.81
2019-05-16T23:49:10.026Z,12.81
2019-05-16T23:51:41.936Z,12.81
2019-05-16T23:54:13.758Z,12.83
2019-05-16T23:56:46.605Z,12.85
2019-05-16T23:59:18.233Z,12.85
